sensor_id;sensor_type;location;lat;lon;timestamp;P1;durP1;ratioP1;P2;durP2;ratioP2
22705;SDS011;11520;51.198;4.468;2023-01-01T00:00:41;10.95;;;2.42;;
22705;SDS011;11520;51.198;4.468;2023-01-01T00:03:06;8.32;;;2.22;;
22705;SDS011;11520;51.198;4.468;2023-01-01T00:05:32;13.10;;;2.60;;
22705;SDS011;11520;51.198;4.468;2023-01-01T00:07:57;7.15;;;2.33;;
22705;SDS011;11520;51.198;4.468;2023-01-01T00:10:23;7.25;;;1.95;;
22705;SDS011;11520;51.198;4.468;2023-01-01T00:12:55;8.20;;;2.13;;
22705;SDS011;11520;51.198;4.468;2023-01-01T00:15:21;12.60;;;2.40;;
22705;SDS011;11520;51.198;4.468;2023-01-01T00:17:48;7.05;;;2.10;;
22705;SDS011;11520;51.198;4.468;2023-01-01T00:20:14;5.90;;;2.40;;
22705;SDS011;11520;51.198;4.468;2023-01-01T00:22:40;7.40;;;1.90;;
22705;SDS011;11520;51.198;4.468;2023-01-01T00:25:06;4.70;;;1.75;;
22705;SDS011;11520;51.198;4.468;2023-01-01T00:27:32;6.55;;;1.88;;
22705;SDS011;11520;51.198;4.468;2023-01-01T00:30:00;4.63;;;1.70;;
22705;SDS011;11520;51.198;4.468;2023-01-01T00:32:26;9.88;;;2.20;;
22705;SDS011;11520;51.198;4.468;2023-01-01T00:34:52;4.70;;;1.58;;
22705;SDS011;11520;51.198;4.468;2023-01-01T00:37:17;13.60;;;1.80;;
22705;SDS011;11520;51.198;4.468;2023-01-01T00:39:43;7.10;;;2.10;;
22705;SDS011;11520;51.198;4.468;2023-01-01T00:42:09;8.77;;;2.17;;
22705;SDS011;11520;51.198;4.468;2023-01-01T00:44:34;7.63;;;2.30;;
22705;SDS011;11520;51.198;4.468;2023-01-01T00:47:00;7.50;;;1.60;;
22705;SDS011;11520;51.198;4.468;2023-01-01T00:49:26;9.38;;;2.05;;
22705;SDS011;11520;51.198;4.468;2023-01-01T00:51:52;12.55;;;2.45;;
22705;SDS011;11520;51.198;4.468;2023-01-01T00:54:17;12.00;;;2.30;;
22705;SDS011;11520;51.198;4.468;2023-01-01T00:56:43;9.50;;;2.20;;
22705;SDS011;11520;51.198;4.468;2023-01-01T00:59:09;11.15;;;2.13;;
22705;SDS011;11520;51.198;4.468;2023-01-01T01:01:34;13.50;;;2.30;;
22705;SDS011;11520;51.198;4.468;2023-01-01T01:04:03;9.23;;;1.98;;
22705;SDS011;11520;51.198;4.468;2023-01-01T01:06:30;6.07;;;1.85;;
22705;SDS011;11520;51.198;4.468;2023-01-01T01:08:55;5.43;;;1.75;;
22705;SDS011;11520;51.198;4.468;2023-01-01T01:11:22;3.45;;;2.08;;
22705;SDS011;11520;51.198;4.468;2023-01-01T01:13:50;4.18;;;1.85;;
22705;SDS011;11520;51.198;4.468;2023-01-01T01:16:19;7.15;;;2.10;;
22705;SDS011;11520;51.198;4.468;2023-01-01T01:18:51;9.68;;;1.70;;
22705;SDS011;11520;51.198;4.468;2023-01-01T01:21:20;9.80;;;2.00;;
22705;SDS011;11520;51.198;4.468;2023-01-01T01:23:47;6.43;;;2.13;;
22705;SDS011;11520;51.198;4.468;2023-01-01T01:26:22;4.13;;;1.73;;
22705;SDS011;11520;51.198;4.468;2023-01-01T01:28:49;8.32;;;2.33;;
22705;SDS011;11520;51.198;4.468;2023-01-01T01:31:16;7.95;;;1.98;;
22705;SDS011;11520;51.198;4.468;2023-01-01T01:33:43;8.85;;;2.10;;
22705;SDS011;11520;51.198;4.468;2023-01-01T01:36:10;5.35;;;1.40;;
22705;SDS011;11520;51.198;4.468;2023-01-01T01:38:37;9.35;;;2.03;;
22705;SDS011;11520;51.198;4.468;2023-01-01T01:41:04;4.88;;;1.65;;
22705;SDS011;11520;51.198;4.468;2023-01-01T01:46:03;5.05;;;1.48;;
22705;SDS011;11520;51.198;4.468;2023-01-01T01:48:41;6.72;;;1.73;;
22705;SDS011;11520;51.198;4.468;2023-01-01T01:51:10;4.90;;;1.60;;
22705;SDS011;11520;51.198;4.468;2023-01-01T01:53:38;6.68;;;1.63;;
22705;SDS011;11520;51.198;4.468;2023-01-01T01:56:12;7.82;;;2.00;;
22705;SDS011;11520;51.198;4.468;2023-01-01T01:58:41;5.18;;;1.83;;
22705;SDS011;11520;51.198;4.468;2023-01-01T02:01:07;6.80;;;1.58;;
22705;SDS011;11520;51.198;4.468;2023-01-01T02:03:37;7.00;;;1.60;;
22705;SDS011;11520;51.198;4.468;2023-01-01T02:06:09;5.82;;;2.13;;
22705;SDS011;11520;51.198;4.468;2023-01-01T02:08:35;8.02;;;1.95;;
22705;SDS011;11520;51.198;4.468;2023-01-01T02:11:01;4.90;;;1.38;;
22705;SDS011;11520;51.198;4.468;2023-01-01T02:13:27;4.65;;;1.15;;
22705;SDS011;11520;51.198;4.468;2023-01-01T02:15:53;9.93;;;1.88;;
22705;SDS011;11520;51.198;4.468;2023-01-01T02:18:31;3.50;;;1.20;;
22705;SDS011;11520;51.198;4.468;2023-01-01T02:21:30;8.10;;;1.53;;
22705;SDS011;11520;51.198;4.468;2023-01-01T02:27:00;6.80;;;1.70;;
22705;SDS011;11520;51.198;4.468;2023-01-01T02:29:39;3.78;;;1.20;;
22705;SDS011;11520;51.198;4.468;2023-01-01T02:34:48;4.57;;;1.67;;
22705;SDS011;11520;51.198;4.468;2023-01-01T02:37:49;6.43;;;1.65;;
22705;SDS011;11520;51.198;4.468;2023-01-01T02:40:18;3.35;;;1.58;;
22705;SDS011;11520;51.198;4.468;2023-01-01T02:42:47;6.13;;;1.42;;
22705;SDS011;11520;51.198;4.468;2023-01-01T02:45:13;5.10;;;1.88;;
22705;SDS011;11520;51.198;4.468;2023-01-01T02:47:39;6.80;;;1.85;;
22705;SDS011;11520;51.198;4.468;2023-01-01T02:50:07;6.32;;;1.52;;
22705;SDS011;11520;51.198;4.468;2023-01-01T03:03:44;4.40;;;1.05;;
22705;SDS011;11520;51.198;4.468;2023-01-01T03:11:52;10.63;;;1.63;;
22705;SDS011;11520;51.198;4.468;2023-01-01T03:17:15;6.68;;;1.35;;
22705;SDS011;11520;51.198;4.468;2023-01-01T03:20:03;7.82;;;1.23;;
22705;SDS011;11520;51.198;4.468;2023-01-01T03:22:35;10.27;;;1.98;;
22705;SDS011;11520;51.198;4.468;2023-01-01T03:25:39;8.43;;;1.40;;
22705;SDS011;11520;51.198;4.468;2023-01-01T03:28:10;4.40;;;1.42;;
22705;SDS011;11520;51.198;4.468;2023-01-01T03:30:39;6.10;;;1.33;;
22705;SDS011;11520;51.198;4.468;2023-01-01T03:33:14;7.45;;;1.80;;
22705;SDS011;11520;51.198;4.468;2023-01-01T03:41:08;8.60;;;1.80;;
22705;SDS011;11520;51.198;4.468;2023-01-01T03:46:20;4.53;;;1.10;;
22705;SDS011;11520;51.198;4.468;2023-01-01T03:48:50;10.90;;;1.90;;
22705;SDS011;11520;51.198;4.468;2023-01-01T03:51:36;4.75;;;1.40;;
22705;SDS011;11520;51.198;4.468;2023-01-01T03:54:35;7.78;;;1.58;;
22705;SDS011;11520;51.198;4.468;2023-01-01T04:00:23;6.95;;;1.85;;
22705;SDS011;11520;51.198;4.468;2023-01-01T04:05:41;8.20;;;2.15;;
22705;SDS011;11520;51.198;4.468;2023-01-01T04:08:08;7.30;;;1.73;;
22705;SDS011;11520;51.198;4.468;2023-01-01T04:10:36;5.22;;;1.85;;
22705;SDS011;11520;51.198;4.468;2023-01-01T04:13:06;6.93;;;2.13;;
22705;SDS011;11520;51.198;4.468;2023-01-01T04:15:32;7.20;;;1.80;;
22705;SDS011;11520;51.198;4.468;2023-01-01T04:18:00;7.60;;;1.80;;
22705;SDS011;11520;51.198;4.468;2023-01-01T04:20:26;7.20;;;1.58;;
22705;SDS011;11520;51.198;4.468;2023-01-01T04:22:54;6.35;;;1.50;;
22705;SDS011;11520;51.198;4.468;2023-01-01T04:25:20;3.78;;;1.40;;
22705;SDS011;11520;51.198;4.468;2023-01-01T04:27:46;9.02;;;1.63;;
22705;SDS011;11520;51.198;4.468;2023-01-01T04:30:12;8.63;;;1.50;;
22705;SDS011;11520;51.198;4.468;2023-01-01T04:32:39;9.70;;;1.90;;
22705;SDS011;11520;51.198;4.468;2023-01-01T04:35:05;6.65;;;1.50;;
22705;SDS011;11520;51.198;4.468;2023-01-01T04:37:35;7.95;;;1.60;;
22705;SDS011;11520;51.198;4.468;2023-01-01T04:40:02;8.95;;;1.40;;
22705;SDS011;11520;51.198;4.468;2023-01-01T04:42:28;6.63;;;1.70;;
22705;SDS011;11520;51.198;4.468;2023-01-01T04:44:54;8.40;;;1.50;;
22705;SDS011;11520;51.198;4.468;2023-01-01T04:47:19;4.53;;;1.42;;
22705;SDS011;11520;51.198;4.468;2023-01-01T04:49:46;5.97;;;1.65;;
22705;SDS011;11520;51.198;4.468;2023-01-01T04:52:12;9.05;;;2.05;;
22705;SDS011;11520;51.198;4.468;2023-01-01T04:54:38;6.18;;;1.55;;
22705;SDS011;11520;51.198;4.468;2023-01-01T04:57:04;7.35;;;2.00;;
22705;SDS011;11520;51.198;4.468;2023-01-01T04:59:31;7.53;;;1.30;;
22705;SDS011;11520;51.198;4.468;2023-01-01T05:01:56;7.30;;;1.95;;
22705;SDS011;11520;51.198;4.468;2023-01-01T05:04:22;5.72;;;1.75;;
22705;SDS011;11520;51.198;4.468;2023-01-01T05:06:48;8.55;;;2.13;;
22705;SDS011;11520;51.198;4.468;2023-01-01T05:09:15;10.40;;;2.10;;
22705;SDS011;11520;51.198;4.468;2023-01-01T05:11:40;4.35;;;1.88;;
22705;SDS011;11520;51.198;4.468;2023-01-01T05:14:06;5.38;;;1.80;;
22705;SDS011;11520;51.198;4.468;2023-01-01T05:16:33;6.63;;;1.73;;
22705;SDS011;11520;51.198;4.468;2023-01-01T05:19:00;8.90;;;2.28;;
22705;SDS011;11520;51.198;4.468;2023-01-01T05:21:30;6.88;;;1.75;;
22705;SDS011;11520;51.198;4.468;2023-01-01T05:23:58;5.90;;;1.95;;
22705;SDS011;11520;51.198;4.468;2023-01-01T05:26:30;9.30;;;1.85;;
22705;SDS011;11520;51.198;4.468;2023-01-01T05:28:58;7.68;;;1.83;;
22705;SDS011;11520;51.198;4.468;2023-01-01T05:31:27;7.75;;;2.05;;
22705;SDS011;11520;51.198;4.468;2023-01-01T05:33:54;6.85;;;1.25;;
22705;SDS011;11520;51.198;4.468;2023-01-01T05:36:23;7.30;;;1.73;;
22705;SDS011;11520;51.198;4.468;2023-01-01T05:38:51;3.30;;;1.00;;
22705;SDS011;11520;51.198;4.468;2023-01-01T05:41:17;5.88;;;1.45;;
22705;SDS011;11520;51.198;4.468;2023-01-01T05:43:45;8.45;;;1.27;;
22705;SDS011;11520;51.198;4.468;2023-01-01T05:46:16;6.57;;;1.27;;
22705;SDS011;11520;51.198;4.468;2023-01-01T05:48:44;5.28;;;1.35;;
22705;SDS011;11520;51.198;4.468;2023-01-01T05:51:11;7.30;;;1.05;;
22705;SDS011;11520;51.198;4.468;2023-01-01T05:53:39;8.20;;;1.00;;
22705;SDS011;11520;51.198;4.468;2023-01-01T05:56:05;3.75;;;1.05;;
22705;SDS011;11520;51.198;4.468;2023-01-01T05:58:32;8.57;;;1.02;;
22705;SDS011;11520;51.198;4.468;2023-01-01T06:03:38;4.10;;;1.00;;
22705;SDS011;11520;51.198;4.468;2023-01-01T06:06:04;3.10;;;0.98;;
22705;SDS011;11520;51.198;4.468;2023-01-01T06:08:31;5.13;;;1.10;;
22705;SDS011;11520;51.198;4.468;2023-01-01T06:11:00;5.95;;;1.70;;
22705;SDS011;11520;51.198;4.468;2023-01-01T06:13:27;5.05;;;1.10;;
22705;SDS011;11520;51.198;4.468;2023-01-01T06:15:54;5.53;;;1.25;;
22705;SDS011;11520;51.198;4.468;2023-01-01T06:18:21;5.78;;;1.30;;
22705;SDS011;11520;51.198;4.468;2023-01-01T06:20:48;5.70;;;1.20;;
22705;SDS011;11520;51.198;4.468;2023-01-01T06:23:13;9.43;;;1.13;;
22705;SDS011;11520;51.198;4.468;2023-01-01T06:25:39;9.05;;;1.00;;
22705;SDS011;11520;51.198;4.468;2023-01-01T06:28:06;7.45;;;1.50;;
22705;SDS011;11520;51.198;4.468;2023-01-01T06:30:31;2.42;;;0.82;;
22705;SDS011;11520;51.198;4.468;2023-01-01T06:32:59;6.40;;;1.50;;
22705;SDS011;11520;51.198;4.468;2023-01-01T06:35:26;3.58;;;1.15;;
22705;SDS011;11520;51.198;4.468;2023-01-01T06:37:52;6.75;;;1.23;;
22705;SDS011;11520;51.198;4.468;2023-01-01T06:40:18;7.30;;;1.30;;
22705;SDS011;11520;51.198;4.468;2023-01-01T06:42:44;4.40;;;1.55;;
22705;SDS011;11520;51.198;4.468;2023-01-01T06:45:09;4.28;;;0.90;;
22705;SDS011;11520;51.198;4.468;2023-01-01T06:47:35;4.78;;;0.90;;
22705;SDS011;11520;51.198;4.468;2023-01-01T06:50:04;9.80;;;1.10;;
22705;SDS011;11520;51.198;4.468;2023-01-01T06:52:30;7.32;;;1.35;;
22705;SDS011;11520;51.198;4.468;2023-01-01T06:54:57;8.75;;;1.40;;
22705;SDS011;11520;51.198;4.468;2023-01-01T06:57:23;12.25;;;2.05;;
22705;SDS011;11520;51.198;4.468;2023-01-01T06:59:49;5.18;;;1.10;;
22705;SDS011;11520;51.198;4.468;2023-01-01T07:02:14;7.10;;;1.70;;
22705;SDS011;11520;51.198;4.468;2023-01-01T07:04:41;4.90;;;1.30;;
22705;SDS011;11520;51.198;4.468;2023-01-01T07:07:08;5.95;;;1.83;;
22705;SDS011;11520;51.198;4.468;2023-01-01T07:09:33;4.85;;;1.55;;
22705;SDS011;11520;51.198;4.468;2023-01-01T07:11:59;8.13;;;1.75;;
22705;SDS011;11520;51.198;4.468;2023-01-01T07:14:26;6.82;;;1.48;;
22705;SDS011;11520;51.198;4.468;2023-01-01T07:16:51;8.10;;;1.42;;
22705;SDS011;11520;51.198;4.468;2023-01-01T07:19:17;8.88;;;1.50;;
22705;SDS011;11520;51.198;4.468;2023-01-01T07:21:43;5.05;;;1.48;;
22705;SDS011;11520;51.198;4.468;2023-01-01T07:24:12;9.48;;;1.48;;
22705;SDS011;11520;51.198;4.468;2023-01-01T07:26:39;8.68;;;2.28;;
22705;SDS011;11520;51.198;4.468;2023-01-01T07:29:06;10.43;;;1.58;;
22705;SDS011;11520;51.198;4.468;2023-01-01T07:31:34;8.05;;;2.25;;
22705;SDS011;11520;51.198;4.468;2023-01-01T07:34:03;8.70;;;2.22;;
22705;SDS011;11520;51.198;4.468;2023-01-01T07:36:33;6.70;;;2.88;;
22705;SDS011;11520;51.198;4.468;2023-01-01T07:38:59;7.47;;;1.58;;
22705;SDS011;11520;51.198;4.468;2023-01-01T07:41:26;6.53;;;1.55;;
22705;SDS011;11520;51.198;4.468;2023-01-01T07:43:52;8.90;;;2.10;;
22705;SDS011;11520;51.198;4.468;2023-01-01T07:46:22;5.22;;;1.35;;
22705;SDS011;11520;51.198;4.468;2023-01-01T07:48:47;7.97;;;2.17;;
22705;SDS011;11520;51.198;4.468;2023-01-01T07:51:15;9.27;;;1.80;;
22705;SDS011;11520;51.198;4.468;2023-01-01T07:53:41;11.38;;;1.90;;
22705;SDS011;11520;51.198;4.468;2023-01-01T07:56:06;7.35;;;1.50;;
22705;SDS011;11520;51.198;4.468;2023-01-01T07:58:34;12.15;;;2.22;;
22705;SDS011;11520;51.198;4.468;2023-01-01T08:01:04;8.77;;;2.35;;
22705;SDS011;11520;51.198;4.468;2023-01-01T08:03:30;7.53;;;2.28;;
22705;SDS011;11520;51.198;4.468;2023-01-01T08:05:56;9.77;;;1.75;;
22705;SDS011;11520;51.198;4.468;2023-01-01T08:08:23;7.45;;;1.58;;
22705;SDS011;11520;51.198;4.468;2023-01-01T08:10:48;10.68;;;2.60;;
22705;SDS011;11520;51.198;4.468;2023-01-01T08:13:16;9.48;;;2.17;;
22705;SDS011;11520;51.198;4.468;2023-01-01T08:15:42;11.55;;;2.55;;
22705;SDS011;11520;51.198;4.468;2023-01-01T08:18:08;6.60;;;2.10;;
22705;SDS011;11520;51.198;4.468;2023-01-01T08:20:35;12.32;;;2.28;;
22705;SDS011;11520;51.198;4.468;2023-01-01T08:23:01;10.10;;;2.05;;
22705;SDS011;11520;51.198;4.468;2023-01-01T08:25:27;6.97;;;1.90;;
22705;SDS011;11520;51.198;4.468;2023-01-01T08:27:54;7.78;;;2.05;;
22705;SDS011;11520;51.198;4.468;2023-01-01T08:30:20;7.30;;;2.55;;
22705;SDS011;11520;51.198;4.468;2023-01-01T08:32:47;7.82;;;2.10;;
22705;SDS011;11520;51.198;4.468;2023-01-01T08:35:13;7.55;;;2.33;;
22705;SDS011;11520;51.198;4.468;2023-01-01T08:37:39;8.98;;;2.47;;
22705;SDS011;11520;51.198;4.468;2023-01-01T08:40:05;20.27;;;4.22;;
22705;SDS011;11520;51.198;4.468;2023-01-01T08:42:31;8.30;;;1.77;;
22705;SDS011;11520;51.198;4.468;2023-01-01T08:44:58;7.95;;;1.95;;
22705;SDS011;11520;51.198;4.468;2023-01-01T08:47:25;8.63;;;2.65;;
22705;SDS011;11520;51.198;4.468;2023-01-01T08:49:51;9.05;;;3.10;;
22705;SDS011;11520;51.198;4.468;2023-01-01T08:52:17;10.02;;;3.03;;
22705;SDS011;11520;51.198;4.468;2023-01-01T08:54:43;8.20;;;3.30;;
22705;SDS011;11520;51.198;4.468;2023-01-01T08:57:10;8.93;;;3.63;;
22705;SDS011;11520;51.198;4.468;2023-01-01T08:59:37;10.80;;;3.17;;
22705;SDS011;11520;51.198;4.468;2023-01-01T09:02:04;8.07;;;2.47;;
22705;SDS011;11520;51.198;4.468;2023-01-01T09:04:30;8.70;;;3.05;;
22705;SDS011;11520;51.198;4.468;2023-01-01T09:06:58;6.43;;;2.08;;
22705;SDS011;11520;51.198;4.468;2023-01-01T09:09:25;10.38;;;2.50;;
22705;SDS011;11520;51.198;4.468;2023-01-01T09:11:54;10.82;;;2.92;;
22705;SDS011;11520;51.198;4.468;2023-01-01T09:14:23;10.70;;;2.92;;
22705;SDS011;11520;51.198;4.468;2023-01-01T09:16:49;10.68;;;3.63;;
22705;SDS011;11520;51.198;4.468;2023-01-01T09:19:15;13.43;;;3.28;;
22705;SDS011;11520;51.198;4.468;2023-01-01T09:21:41;11.68;;;3.00;;
22705;SDS011;11520;51.198;4.468;2023-01-01T09:24:06;9.43;;;2.80;;
22705;SDS011;11520;51.198;4.468;2023-01-01T09:26:32;10.75;;;2.78;;
22705;SDS011;11520;51.198;4.468;2023-01-01T09:29:00;12.55;;;2.85;;
22705;SDS011;11520;51.198;4.468;2023-01-01T09:31:27;12.27;;;3.10;;
22705;SDS011;11520;51.198;4.468;2023-01-01T09:33:52;12.32;;;3.22;;
22705;SDS011;11520;51.198;4.468;2023-01-01T09:36:30;7.32;;;2.58;;
22705;SDS011;11520;51.198;4.468;2023-01-01T09:41:54;9.60;;;3.15;;
22705;SDS011;11520;51.198;4.468;2023-01-01T09:47:41;8.75;;;2.13;;
22705;SDS011;11520;51.198;4.468;2023-01-01T09:50:12;8.63;;;2.58;;
22705;SDS011;11520;51.198;4.468;2023-01-01T09:52:52;13.02;;;2.88;;
22705;SDS011;11520;51.198;4.468;2023-01-01T09:55:29;13.57;;;2.92;;
22705;SDS011;11520;51.198;4.468;2023-01-01T09:58:22;10.38;;;2.25;;
22705;SDS011;11520;51.198;4.468;2023-01-01T10:00:53;9.37;;;2.93;;
22705;SDS011;11520;51.198;4.468;2023-01-01T10:03:34;9.50;;;2.63;;
22705;SDS011;11520;51.198;4.468;2023-01-01T10:06:12;10.15;;;2.63;;
22705;SDS011;11520;51.198;4.468;2023-01-01T10:14:29;9.50;;;2.38;;
22705;SDS011;11520;51.198;4.468;2023-01-01T10:17:01;10.07;;;2.08;;
22705;SDS011;11520;51.198;4.468;2023-01-01T10:19:36;13.98;;;2.38;;
22705;SDS011;11520;51.198;4.468;2023-01-01T10:22:24;8.13;;;2.20;;
22705;SDS011;11520;51.198;4.468;2023-01-01T10:25:00;8.85;;;2.55;;
22705;SDS011;11520;51.198;4.468;2023-01-01T10:27:36;14.98;;;2.15;;
22705;SDS011;11520;51.198;4.468;2023-01-01T10:30:19;15.50;;;2.85;;
22705;SDS011;11520;51.198;4.468;2023-01-01T10:32:49;10.52;;;2.35;;
22705;SDS011;11520;51.198;4.468;2023-01-01T10:35:18;8.15;;;2.45;;
22705;SDS011;11520;51.198;4.468;2023-01-01T10:37:48;12.75;;;2.28;;
22705;SDS011;11520;51.198;4.468;2023-01-01T10:40:21;12.30;;;2.17;;
22705;SDS011;11520;51.198;4.468;2023-01-01T10:42:50;8.25;;;2.05;;
22705;SDS011;11520;51.198;4.468;2023-01-01T10:45:29;4.47;;;1.88;;
22705;SDS011;11520;51.198;4.468;2023-01-01T10:51:13;10.45;;;2.47;;
22705;SDS011;11520;51.198;4.468;2023-01-01T10:56:23;8.00;;;2.00;;
22705;SDS011;11520;51.198;4.468;2023-01-01T10:58:58;10.77;;;2.75;;
22705;SDS011;11520;51.198;4.468;2023-01-01T11:06:39;9.23;;;3.03;;
22705;SDS011;11520;51.198;4.468;2023-01-01T11:09:22;10.00;;;2.70;;
22705;SDS011;11520;51.198;4.468;2023-01-01T11:11:58;9.82;;;1.85;;
22705;SDS011;11520;51.198;4.468;2023-01-01T11:14:42;8.70;;;1.88;;
22705;SDS011;11520;51.198;4.468;2023-01-01T11:17:19;11.18;;;1.98;;
22705;SDS011;11520;51.198;4.468;2023-01-01T11:25:09;11.77;;;2.00;;
22705;SDS011;11520;51.198;4.468;2023-01-01T11:27:48;7.65;;;2.22;;
22705;SDS011;11520;51.198;4.468;2023-01-01T11:32:45;12.40;;;2.17;;
22705;SDS011;11520;51.198;4.468;2023-01-01T11:35:22;12.35;;;2.30;;
22705;SDS011;11520;51.198;4.468;2023-01-01T11:37:51;9.93;;;2.38;;
22705;SDS011;11520;51.198;4.468;2023-01-01T11:40:20;15.02;;;2.40;;
22705;SDS011;11520;51.198;4.468;2023-01-01T11:42:49;7.68;;;2.08;;
22705;SDS011;11520;51.198;4.468;2023-01-01T11:45:19;13.23;;;2.58;;
22705;SDS011;11520;51.198;4.468;2023-01-01T11:47:52;6.70;;;1.70;;
22705;SDS011;11520;51.198;4.468;2023-01-01T11:50:37;11.63;;;2.38;;
22705;SDS011;11520;51.198;4.468;2023-01-01T11:56:11;8.15;;;1.88;;
22705;SDS011;11520;51.198;4.468;2023-01-01T12:04:38;11.88;;;2.38;;
22705;SDS011;11520;51.198;4.468;2023-01-01T12:12:27;7.93;;;2.00;;
22705;SDS011;11520;51.198;4.468;2023-01-01T12:15:23;9.88;;;2.17;;
22705;SDS011;11520;51.198;4.468;2023-01-01T12:20:35;6.63;;;2.20;;
22705;SDS011;11520;51.198;4.468;2023-01-01T12:23:07;11.05;;;2.33;;
22705;SDS011;11520;51.198;4.468;2023-01-01T12:25:40;9.55;;;2.13;;
22705;SDS011;11520;51.198;4.468;2023-01-01T12:36:29;10.05;;;2.03;;
22705;SDS011;11520;51.198;4.468;2023-01-01T12:47:33;8.82;;;1.60;;
22705;SDS011;11520;51.198;4.468;2023-01-01T12:59:06;12.10;;;2.60;;
22705;SDS011;11520;51.198;4.468;2023-01-01T13:01:40;7.38;;;1.88;;
22705;SDS011;11520;51.198;4.468;2023-01-01T13:04:13;12.93;;;3.13;;
22705;SDS011;11520;51.198;4.468;2023-01-01T13:09:17;13.82;;;3.88;;
22705;SDS011;11520;51.198;4.468;2023-01-01T13:11:50;11.30;;;2.80;;
22705;SDS011;11520;51.198;4.468;2023-01-01T13:17:17;10.73;;;2.28;;
22705;SDS011;11520;51.198;4.468;2023-01-01T13:19:43;7.57;;;2.10;;
22705;SDS011;11520;51.198;4.468;2023-01-01T13:33:21;11.25;;;2.45;;
22705;SDS011;11520;51.198;4.468;2023-01-01T13:52:24;9.75;;;2.63;;
22705;SDS011;11520;51.198;4.468;2023-01-01T14:03:47;9.50;;;3.25;;
22705;SDS011;11520;51.198;4.468;2023-01-01T14:06:18;15.93;;;3.10;;
22705;SDS011;11520;51.198;4.468;2023-01-01T14:09:10;13.93;;;3.15;;
22705;SDS011;11520;51.198;4.468;2023-01-01T14:11:37;14.13;;;2.72;;
22705;SDS011;11520;51.198;4.468;2023-01-01T14:14:16;13.50;;;3.65;;
22705;SDS011;11520;51.198;4.468;2023-01-01T14:16:51;17.45;;;4.55;;
22705;SDS011;11520;51.198;4.468;2023-01-01T14:19:23;15.35;;;3.72;;
22705;SDS011;11520;51.198;4.468;2023-01-01T14:21:49;10.98;;;3.50;;
22705;SDS011;11520;51.198;4.468;2023-01-01T14:24:18;13.57;;;3.97;;
22705;SDS011;11520;51.198;4.468;2023-01-01T14:26:46;10.00;;;2.72;;
22705;SDS011;11520;51.198;4.468;2023-01-01T14:29:15;14.27;;;3.28;;
22705;SDS011;11520;51.198;4.468;2023-01-01T14:31:47;10.73;;;3.38;;
22705;SDS011;11520;51.198;4.468;2023-01-01T14:36:53;12.07;;;3.10;;
22705;SDS011;11520;51.198;4.468;2023-01-01T14:39:23;11.95;;;2.75;;
22705;SDS011;11520;51.198;4.468;2023-01-01T14:42:04;12.52;;;3.10;;
22705;SDS011;11520;51.198;4.468;2023-01-01T14:44:37;8.20;;;2.70;;
22705;SDS011;11520;51.198;4.468;2023-01-01T14:47:15;11.38;;;4.10;;
22705;SDS011;11520;51.198;4.468;2023-01-01T14:50:04;8.43;;;3.35;;
22705;SDS011;11520;51.198;4.468;2023-01-01T14:52:41;9.35;;;2.90;;
22705;SDS011;11520;51.198;4.468;2023-01-01T14:55:07;12.05;;;3.47;;
22705;SDS011;11520;51.198;4.468;2023-01-01T14:57:43;11.07;;;3.35;;
22705;SDS011;11520;51.198;4.468;2023-01-01T15:00:21;10.50;;;3.38;;
22705;SDS011;11520;51.198;4.468;2023-01-01T15:02:52;8.13;;;2.53;;
22705;SDS011;11520;51.198;4.468;2023-01-01T15:07:57;6.95;;;2.45;;
22705;SDS011;11520;51.198;4.468;2023-01-01T15:10:25;12.23;;;2.97;;
22705;SDS011;11520;51.198;4.468;2023-01-01T15:12:54;13.10;;;3.47;;
22705;SDS011;11520;51.198;4.468;2023-01-01T15:15:34;8.05;;;2.35;;
22705;SDS011;11520;51.198;4.468;2023-01-01T15:18:05;13.05;;;2.72;;
22705;SDS011;11520;51.198;4.468;2023-01-01T15:20:54;9.43;;;2.30;;
22705;SDS011;11520;51.198;4.468;2023-01-01T15:23:20;12.70;;;3.85;;
22705;SDS011;11520;51.198;4.468;2023-01-01T15:25:47;15.20;;;3.15;;
22705;SDS011;11520;51.198;4.468;2023-01-01T15:28:17;10.48;;;3.13;;
22705;SDS011;11520;51.198;4.468;2023-01-01T15:30:44;10.27;;;3.25;;
22705;SDS011;11520;51.198;4.468;2023-01-01T15:33:23;9.47;;;2.93;;
22705;SDS011;11520;51.198;4.468;2023-01-01T15:35:51;11.55;;;3.17;;
22705;SDS011;11520;51.198;4.468;2023-01-01T15:38:25;12.10;;;3.22;;
22705;SDS011;11520;51.198;4.468;2023-01-01T15:40:58;14.70;;;4.25;;
22705;SDS011;11520;51.198;4.468;2023-01-01T15:43:24;12.10;;;3.22;;
22705;SDS011;11520;51.198;4.468;2023-01-01T15:48:31;10.25;;;2.85;;
22705;SDS011;11520;51.198;4.468;2023-01-01T15:51:04;14.25;;;4.18;;
22705;SDS011;11520;51.198;4.468;2023-01-01T15:53:46;11.27;;;3.50;;
22705;SDS011;11520;51.198;4.468;2023-01-01T15:56:12;16.48;;;4.72;;
22705;SDS011;11520;51.198;4.468;2023-01-01T16:01:08;18.20;;;3.35;;
22705;SDS011;11520;51.198;4.468;2023-01-01T16:03:37;13.25;;;2.83;;
22705;SDS011;11520;51.198;4.468;2023-01-01T16:06:05;7.55;;;2.97;;
22705;SDS011;11520;51.198;4.468;2023-01-01T16:08:31;9.25;;;2.42;;
22705;SDS011;11520;51.198;4.468;2023-01-01T16:10:57;10.95;;;2.97;;
22705;SDS011;11520;51.198;4.468;2023-01-01T16:13:22;11.50;;;3.22;;
22705;SDS011;11520;51.198;4.468;2023-01-01T16:15:52;7.45;;;2.88;;
22705;SDS011;11520;51.198;4.468;2023-01-01T16:18:26;9.18;;;3.08;;
22705;SDS011;11520;51.198;4.468;2023-01-01T16:20:56;12.57;;;2.55;;
22705;SDS011;11520;51.198;4.468;2023-01-01T16:23:23;7.30;;;2.40;;
22705;SDS011;11520;51.198;4.468;2023-01-01T16:25:48;9.25;;;2.60;;
22705;SDS011;11520;51.198;4.468;2023-01-01T16:28:15;7.10;;;2.42;;
22705;SDS011;11520;51.198;4.468;2023-01-01T16:30:41;9.10;;;2.70;;
22705;SDS011;11520;51.198;4.468;2023-01-01T16:33:26;7.95;;;3.13;;
22705;SDS011;11520;51.198;4.468;2023-01-01T16:35:51;8.43;;;2.20;;
22705;SDS011;11520;51.198;4.468;2023-01-01T16:38:23;7.57;;;2.22;;
22705;SDS011;11520;51.198;4.468;2023-01-01T16:40:49;9.93;;;2.58;;
22705;SDS011;11520;51.198;4.468;2023-01-01T16:45:45;10.05;;;2.65;;
22705;SDS011;11520;51.198;4.468;2023-01-01T16:48:12;10.10;;;2.25;;
22705;SDS011;11520;51.198;4.468;2023-01-01T16:50:43;13.45;;;3.17;;
22705;SDS011;11520;51.198;4.468;2023-01-01T16:53:12;8.25;;;2.40;;
22705;SDS011;11520;51.198;4.468;2023-01-01T16:55:40;8.13;;;2.47;;
22705;SDS011;11520;51.198;4.468;2023-01-01T16:58:07;12.35;;;2.88;;
22705;SDS011;11520;51.198;4.468;2023-01-01T17:00:33;10.07;;;3.20;;
22705;SDS011;11520;51.198;4.468;2023-01-01T17:03:00;5.57;;;2.60;;
22705;SDS011;11520;51.198;4.468;2023-01-01T17:05:27;7.53;;;2.95;;
22705;SDS011;11520;51.198;4.468;2023-01-01T17:07:59;8.93;;;3.17;;
22705;SDS011;11520;51.198;4.468;2023-01-01T17:10:24;6.20;;;2.70;;
22705;SDS011;11520;51.198;4.468;2023-01-01T17:12:51;7.15;;;3.03;;
22705;SDS011;11520;51.198;4.468;2023-01-01T17:17:48;14.85;;;3.05;;
22705;SDS011;11520;51.198;4.468;2023-01-01T17:20:16;8.07;;;3.33;;
22705;SDS011;11520;51.198;4.468;2023-01-01T17:22:44;9.82;;;3.47;;
22705;SDS011;11520;51.198;4.468;2023-01-01T17:25:10;7.07;;;2.70;;
22705;SDS011;11520;51.198;4.468;2023-01-01T17:27:42;10.75;;;4.18;;
22705;SDS011;11520;51.198;4.468;2023-01-01T17:30:09;10.07;;;4.00;;
22705;SDS011;11520;51.198;4.468;2023-01-01T17:32:36;17.50;;;7.13;;
22705;SDS011;11520;51.198;4.468;2023-01-01T17:35:02;13.80;;;6.18;;
22705;SDS011;11520;51.198;4.468;2023-01-01T17:37:35;12.23;;;3.90;;
22705;SDS011;11520;51.198;4.468;2023-01-01T17:40:02;9.20;;;3.38;;
22705;SDS011;11520;51.198;4.468;2023-01-01T17:42:28;6.07;;;2.80;;
22705;SDS011;11520;51.198;4.468;2023-01-01T17:44:56;8.77;;;2.50;;
22705;SDS011;11520;51.198;4.468;2023-01-01T17:47:22;7.88;;;2.70;;
22705;SDS011;11520;51.198;4.468;2023-01-01T17:49:49;9.73;;;2.83;;
22705;SDS011;11520;51.198;4.468;2023-01-01T17:52:16;9.52;;;3.30;;